KAGS/AGS METAR and TAF weather

Enter ICAO airport designator
Station Type Date Time Source
KAGS METAR 2020/08/10 17:53 UTC NOAA

KAGS 101753Z VRB05KT 10SM CLR 34/22 A3005 RMK AO2 SLP175 T03390222 10344 20233 58014


Station Type Date Time Source
KAGS Decoded METAR 2020/08/10 17:53 UTC NOAA

AUGUSTA BUSH FIELD, GA, United States (KAGS) 33-22N 081-58W 44M
Aug 10, 2020 - 01:53 PM EDT / 2020.08.10 1753 UTC
Wind: Variable at 6 MPH (5 KT):0
Visibility: 10 mile(s):0
Sky conditions: clear
Temperature: 93.0 F (33.9 C)
Heat index: 100.8 F (38.2 C):1
Dew Point: 72.0 F (22.2 C)
Relative Humidity: 50%
Pressure (altimeter): 30.05 in. Hg (1017 hPa)
Pressure tendency: 0.04 inches (1.4 hPa) lower than three hours ago
ob: KAGS 101753Z VRB05KT 10SM CLR 34/22 A3005 RMK AO2 SLP175 T03390222 10344 20233 58014
cycle: 18

Station Type Date Time Source
KAGS TAF 2020/08/10 18:39 UTC NOAA

TAF KAGS 101736Z 1018/1118 27006KT P6SM VCTS SCT050CB
TEMPO 1019/1023 TSRA
FM110300 VRB03KT P6SM SCT050 BKN150

Example: see airport list